sensor_id;sensor_type;location;lat;lon;timestamp;P1;durP1;ratioP1;P2;durP2;ratioP2
4597;SDS011;62772;48.646;8.906;2023-05-10T00:04:58;2.80;;;1.60;;
4597;SDS011;62772;48.646;8.906;2023-05-10T00:09:59;1.80;;;1.20;;
4597;SDS011;62772;48.646;8.906;2023-05-10T00:14:59;1.90;;;1.30;;
4597;SDS011;62772;48.646;8.906;2023-05-10T00:20:00;2.90;;;1.23;;
4597;SDS011;62772;48.646;8.906;2023-05-10T00:25:00;3.90;;;1.10;;
4597;SDS011;62772;48.646;8.906;2023-05-10T00:30:01;2.30;;;1.40;;
4597;SDS011;62772;48.646;8.906;2023-05-10T00:35:03;4.23;;;1.40;;
4597;SDS011;62772;48.646;8.906;2023-05-10T00:40:03;1.90;;;1.10;;
4597;SDS011;62772;48.646;8.906;2023-05-10T00:45:05;4.60;;;1.10;;
4597;SDS011;62772;48.646;8.906;2023-05-10T00:50:06;2.57;;;1.10;;
4597;SDS011;62772;48.646;8.906;2023-05-10T00:55:08;1.87;;;1.00;;
4597;SDS011;62772;48.646;8.906;2023-05-10T01:00:11;1.50;;;0.80;;
4597;SDS011;62772;48.646;8.906;2023-05-10T01:05:13;1.60;;;0.80;;
4597;SDS011;62772;48.646;8.906;2023-05-10T01:10:14;2.47;;;1.10;;
4597;SDS011;62772;48.646;8.906;2023-05-10T01:15:15;1.70;;;1.00;;
4597;SDS011;62772;48.646;8.906;2023-05-10T01:20:18;2.00;;;1.03;;
4597;SDS011;62772;48.646;8.906;2023-05-10T01:36:16;1.90;;;1.20;;
4597;SDS011;62772;48.646;8.906;2023-05-10T01:41:45;2.47;;;1.10;;
4597;SDS011;62772;48.646;8.906;2023-05-10T01:46:53;2.43;;;1.20;;
4597;SDS011;62772;48.646;8.906;2023-05-10T01:51:59;2.47;;;1.23;;
4597;SDS011;62772;48.646;8.906;2023-05-10T01:57:05;1.80;;;1.20;;
4597;SDS011;62772;48.646;8.906;2023-05-10T02:02:09;2.00;;;1.30;;
4597;SDS011;62772;48.646;8.906;2023-05-10T02:07:12;2.27;;;1.33;;
4597;SDS011;62772;48.646;8.906;2023-05-10T02:12:14;3.13;;;1.40;;
4597;SDS011;62772;48.646;8.906;2023-05-10T02:17:16;2.07;;;1.40;;
4597;SDS011;62772;48.646;8.906;2023-05-10T02:22:17;2.00;;;1.33;;
4597;SDS011;62772;48.646;8.906;2023-05-10T02:27:19;2.00;;;1.40;;
4597;SDS011;62772;48.646;8.906;2023-05-10T02:32:21;3.40;;;1.57;;
4597;SDS011;62772;48.646;8.906;2023-05-10T02:37:24;2.70;;;1.57;;
4597;SDS011;62772;48.646;8.906;2023-05-10T02:42:26;2.90;;;1.30;;
4597;SDS011;62772;48.646;8.906;2023-05-10T02:47:30;2.00;;;1.23;;
4597;SDS011;62772;48.646;8.906;2023-05-10T02:52:36;2.27;;;1.40;;
4597;SDS011;62772;48.646;8.906;2023-05-10T02:57:46;2.10;;;1.50;;
4597;SDS011;62772;48.646;8.906;2023-05-10T03:02:51;2.33;;;1.60;;
4597;SDS011;62772;48.646;8.906;2023-05-10T03:07:52;2.60;;;1.60;;
4597;SDS011;62772;48.646;8.906;2023-05-10T03:13:07;2.80;;;1.60;;
4597;SDS011;62772;48.646;8.906;2023-05-10T03:18:23;3.40;;;1.77;;
4597;SDS011;62772;48.646;8.906;2023-05-10T03:23:35;3.00;;;1.67;;
4597;SDS011;62772;48.646;8.906;2023-05-10T03:28:41;2.57;;;1.60;;
4597;SDS011;62772;48.646;8.906;2023-05-10T03:33:45;2.40;;;1.83;;
4597;SDS011;62772;48.646;8.906;2023-05-10T03:38:53;2.33;;;1.67;;
4597;SDS011;62772;48.646;8.906;2023-05-10T03:43:54;3.20;;;1.87;;
4597;SDS011;62772;48.646;8.906;2023-05-10T03:48:54;3.03;;;1.93;;
4597;SDS011;62772;48.646;8.906;2023-05-10T03:53:55;3.33;;;1.70;;
4597;SDS011;62772;48.646;8.906;2023-05-10T03:58:56;2.93;;;1.90;;
4597;SDS011;62772;48.646;8.906;2023-05-10T04:03:57;4.67;;;2.40;;
4597;SDS011;62772;48.646;8.906;2023-05-10T04:08:57;3.50;;;2.30;;
4597;SDS011;62772;48.646;8.906;2023-05-10T04:14:00;3.33;;;2.37;;
4597;SDS011;62772;48.646;8.906;2023-05-10T04:19:00;4.80;;;2.43;;
4597;SDS011;62772;48.646;8.906;2023-05-10T04:24:01;3.37;;;2.47;;
4597;SDS011;62772;48.646;8.906;2023-05-10T04:29:01;4.40;;;3.10;;
4597;SDS011;62772;48.646;8.906;2023-05-10T04:34:02;4.67;;;3.10;;
4597;SDS011;62772;48.646;8.906;2023-05-10T04:39:03;5.20;;;2.83;;
4597;SDS011;62772;48.646;8.906;2023-05-10T04:44:04;3.50;;;2.50;;
4597;SDS011;62772;48.646;8.906;2023-05-10T04:49:04;6.80;;;3.50;;
4597;SDS011;62772;48.646;8.906;2023-05-10T04:54:05;5.27;;;3.00;;
4597;SDS011;62772;48.646;8.906;2023-05-10T04:59:05;4.70;;;2.97;;
4597;SDS011;62772;48.646;8.906;2023-05-10T05:04:06;5.40;;;3.10;;
4597;SDS011;62772;48.646;8.906;2023-05-10T05:09:06;3.73;;;2.77;;
4597;SDS011;62772;48.646;8.906;2023-05-10T05:14:07;5.20;;;3.00;;
4597;SDS011;62772;48.646;8.906;2023-05-10T05:19:07;5.40;;;3.20;;
4597;SDS011;62772;48.646;8.906;2023-05-10T05:24:08;5.20;;;2.93;;
4597;SDS011;62772;48.646;8.906;2023-05-10T05:29:08;4.73;;;3.00;;
4597;SDS011;62772;48.646;8.906;2023-05-10T05:34:09;3.57;;;2.60;;
4597;SDS011;62772;48.646;8.906;2023-05-10T05:39:09;3.83;;;2.90;;
4597;SDS011;62772;48.646;8.906;2023-05-10T05:44:10;4.90;;;3.03;;
4597;SDS011;62772;48.646;8.906;2023-05-10T05:49:10;5.17;;;3.27;;
4597;SDS011;62772;48.646;8.906;2023-05-10T05:54:10;7.00;;;3.83;;
4597;SDS011;62772;48.646;8.906;2023-05-10T05:59:11;6.50;;;3.60;;
4597;SDS011;62772;48.646;8.906;2023-05-10T06:04:11;5.70;;;3.47;;
4597;SDS011;62772;48.646;8.906;2023-05-10T06:09:12;10.00;;;3.37;;
4597;SDS011;62772;48.646;8.906;2023-05-10T06:14:13;4.87;;;3.10;;
4597;SDS011;62772;48.646;8.906;2023-05-10T06:19:13;5.80;;;3.60;;
4597;SDS011;62772;48.646;8.906;2023-05-10T06:24:14;5.23;;;3.20;;
4597;SDS011;62772;48.646;8.906;2023-05-10T06:29:14;4.10;;;2.93;;
4597;SDS011;62772;48.646;8.906;2023-05-10T06:34:15;4.10;;;2.67;;
4597;SDS011;62772;48.646;8.906;2023-05-10T06:39:15;3.90;;;2.40;;
4597;SDS011;62772;48.646;8.906;2023-05-10T06:44:16;4.70;;;2.80;;
4597;SDS011;62772;48.646;8.906;2023-05-10T06:49:16;3.60;;;2.23;;
4597;SDS011;62772;48.646;8.906;2023-05-10T06:54:17;3.77;;;2.67;;
4597;SDS011;62772;48.646;8.906;2023-05-10T06:59:17;3.40;;;2.50;;
4597;SDS011;62772;48.646;8.906;2023-05-10T07:04:19;3.40;;;2.50;;
4597;SDS011;62772;48.646;8.906;2023-05-10T07:09:19;3.80;;;2.47;;
4597;SDS011;62772;48.646;8.906;2023-05-10T07:14:20;3.53;;;2.33;;
4597;SDS011;62772;48.646;8.906;2023-05-10T07:19:20;4.50;;;2.50;;
4597;SDS011;62772;48.646;8.906;2023-05-10T07:24:21;3.40;;;2.20;;
4597;SDS011;62772;48.646;8.906;2023-05-10T07:29:23;3.83;;;1.93;;
4597;SDS011;62772;48.646;8.906;2023-05-10T07:34:24;4.13;;;2.00;;
4597;SDS011;62772;48.646;8.906;2023-05-10T07:39:25;2.73;;;1.80;;
4597;SDS011;62772;48.646;8.906;2023-05-10T07:44:26;2.97;;;1.67;;
4597;SDS011;62772;48.646;8.906;2023-05-10T07:49:26;2.67;;;1.67;;
4597;SDS011;62772;48.646;8.906;2023-05-10T07:54:27;3.10;;;1.70;;
4597;SDS011;62772;48.646;8.906;2023-05-10T07:59:27;4.23;;;2.07;;
4597;SDS011;62772;48.646;8.906;2023-05-10T08:04:28;2.70;;;1.40;;
4597;SDS011;62772;48.646;8.906;2023-05-10T08:09:28;2.97;;;1.40;;
4597;SDS011;62772;48.646;8.906;2023-05-10T08:14:29;1.93;;;1.27;;
4597;SDS011;62772;48.646;8.906;2023-05-10T08:19:30;2.10;;;1.30;;
4597;SDS011;62772;48.646;8.906;2023-05-10T08:24:30;2.00;;;1.27;;
4597;SDS011;62772;48.646;8.906;2023-05-10T08:29:31;3.60;;;1.40;;
4597;SDS011;62772;48.646;8.906;2023-05-10T08:34:31;3.83;;;1.27;;
4597;SDS011;62772;48.646;8.906;2023-05-10T08:39:34;5.33;;;1.80;;
4597;SDS011;62772;48.646;8.906;2023-05-10T08:44:35;2.10;;;1.43;;
4597;SDS011;62772;48.646;8.906;2023-05-10T08:49:36;2.53;;;1.20;;
4597;SDS011;62772;48.646;8.906;2023-05-10T08:54:37;2.00;;;1.43;;
4597;SDS011;62772;48.646;8.906;2023-05-10T08:59:38;1.70;;;1.00;;
4597;SDS011;62772;48.646;8.906;2023-05-10T09:04:39;1.80;;;1.00;;
4597;SDS011;62772;48.646;8.906;2023-05-10T09:09:40;1.90;;;1.20;;
4597;SDS011;62772;48.646;8.906;2023-05-10T09:14:41;3.00;;;1.30;;
4597;SDS011;62772;48.646;8.906;2023-05-10T09:19:44;2.10;;;1.20;;
4597;SDS011;62772;48.646;8.906;2023-05-10T09:24:45;1.67;;;1.10;;
4597;SDS011;62772;48.646;8.906;2023-05-10T09:29:45;1.70;;;1.10;;
4597;SDS011;62772;48.646;8.906;2023-05-10T09:34:46;1.90;;;1.20;;
4597;SDS011;62772;48.646;8.906;2023-05-10T09:39:49;1.60;;;1.10;;
4597;SDS011;62772;48.646;8.906;2023-05-10T09:44:54;1.70;;;1.00;;
4597;SDS011;62772;48.646;8.906;2023-05-10T09:50:01;1.90;;;1.20;;
4597;SDS011;62772;48.646;8.906;2023-05-10T09:55:03;3.30;;;1.40;;
4597;SDS011;62772;48.646;8.906;2023-05-10T10:00:05;2.20;;;1.20;;
4597;SDS011;62772;48.646;8.906;2023-05-10T10:05:14;2.03;;;1.13;;
4597;SDS011;62772;48.646;8.906;2023-05-10T10:10:15;1.63;;;1.13;;
4597;SDS011;62772;48.646;8.906;2023-05-10T10:15:15;1.70;;;1.10;;
4597;SDS011;62772;48.646;8.906;2023-05-10T10:20:17;3.03;;;1.30;;
4597;SDS011;62772;48.646;8.906;2023-05-10T10:25:19;1.87;;;1.20;;
4597;SDS011;62772;48.646;8.906;2023-05-10T10:35:44;3.20;;;1.17;;
4597;SDS011;62772;48.646;8.906;2023-05-10T10:40:46;2.73;;;1.43;;
4597;SDS011;62772;48.646;8.906;2023-05-10T10:46:33;1.70;;;1.17;;
4597;SDS011;62772;48.646;8.906;2023-05-10T10:51:13;4.63;;;1.50;;
4597;SDS011;62772;48.646;8.906;2023-05-10T10:56:14;3.00;;;1.57;;
4597;SDS011;62772;48.646;8.906;2023-05-10T11:01:16;3.87;;;1.60;;
4597;SDS011;62772;48.646;8.906;2023-05-10T11:06:18;3.30;;;1.60;;
4597;SDS011;62772;48.646;8.906;2023-05-10T11:11:32;2.47;;;1.30;;
4597;SDS011;62772;48.646;8.906;2023-05-10T11:16:41;3.30;;;1.77;;
4597;SDS011;62772;48.646;8.906;2023-05-10T11:26:48;2.90;;;1.30;;
4597;SDS011;62772;48.646;8.906;2023-05-10T11:31:53;2.97;;;1.30;;
4597;SDS011;62772;48.646;8.906;2023-05-10T11:36:57;2.73;;;1.60;;
4597;SDS011;62772;48.646;8.906;2023-05-10T11:41:58;3.13;;;1.37;;
4597;SDS011;62772;48.646;8.906;2023-05-10T11:46:59;3.73;;;1.60;;
4597;SDS011;62772;48.646;8.906;2023-05-10T11:52:04;3.63;;;1.70;;
4597;SDS011;62772;48.646;8.906;2023-05-10T11:57:06;3.03;;;1.63;;
4597;SDS011;62772;48.646;8.906;2023-05-10T12:02:06;1.90;;;1.20;;
4597;SDS011;62772;48.646;8.906;2023-05-10T12:07:08;2.47;;;1.70;;
4597;SDS011;62772;48.646;8.906;2023-05-10T12:12:09;2.37;;;1.50;;
4597;SDS011;62772;48.646;8.906;2023-05-10T12:17:12;5.00;;;1.83;;
4597;SDS011;62772;48.646;8.906;2023-05-10T12:22:13;3.00;;;1.47;;
4597;SDS011;62772;48.646;8.906;2023-05-10T12:27:13;3.17;;;1.80;;
4597;SDS011;62772;48.646;8.906;2023-05-10T12:32:15;4.60;;;1.63;;
4597;SDS011;62772;48.646;8.906;2023-05-10T12:37:15;3.40;;;1.70;;
4597;SDS011;62772;48.646;8.906;2023-05-10T12:42:16;2.83;;;1.80;;
4597;SDS011;62772;48.646;8.906;2023-05-10T12:47:16;3.03;;;1.77;;
4597;SDS011;62772;48.646;8.906;2023-05-10T12:52:16;2.33;;;1.67;;
4597;SDS011;62772;48.646;8.906;2023-05-10T12:57:17;3.40;;;1.83;;
4597;SDS011;62772;48.646;8.906;2023-05-10T13:02:18;2.40;;;1.60;;
4597;SDS011;62772;48.646;8.906;2023-05-10T13:07:18;4.60;;;1.70;;
4597;SDS011;62772;48.646;8.906;2023-05-10T13:12:19;2.83;;;1.70;;
4597;SDS011;62772;48.646;8.906;2023-05-10T13:17:19;3.13;;;1.60;;
4597;SDS011;62772;48.646;8.906;2023-05-10T13:22:20;3.00;;;1.43;;
4597;SDS011;62772;48.646;8.906;2023-05-10T13:27:20;2.73;;;1.57;;
4597;SDS011;62772;48.646;8.906;2023-05-10T13:32:20;2.40;;;1.60;;
4597;SDS011;62772;48.646;8.906;2023-05-10T13:37:21;4.00;;;1.50;;
4597;SDS011;62772;48.646;8.906;2023-05-10T13:42:22;4.10;;;1.90;;
4597;SDS011;62772;48.646;8.906;2023-05-10T13:47:23;2.53;;;1.63;;
4597;SDS011;62772;48.646;8.906;2023-05-10T13:52:23;4.60;;;2.00;;
4597;SDS011;62772;48.646;8.906;2023-05-10T13:57:24;6.37;;;2.00;;
4597;SDS011;62772;48.646;8.906;2023-05-10T14:02:25;2.37;;;1.63;;
4597;SDS011;62772;48.646;8.906;2023-05-10T14:07:27;4.00;;;2.00;;
4597;SDS011;62772;48.646;8.906;2023-05-10T14:12:27;6.87;;;1.90;;
4597;SDS011;62772;48.646;8.906;2023-05-10T14:17:28;2.80;;;1.40;;
4597;SDS011;62772;48.646;8.906;2023-05-10T14:22:28;2.23;;;1.50;;
4597;SDS011;62772;48.646;8.906;2023-05-10T14:27:29;3.43;;;1.50;;
4597;SDS011;62772;48.646;8.906;2023-05-10T14:32:30;2.80;;;1.40;;
4597;SDS011;62772;48.646;8.906;2023-05-10T14:37:32;3.43;;;1.37;;
4597;SDS011;62772;48.646;8.906;2023-05-10T14:42:32;5.00;;;1.37;;
4597;SDS011;62772;48.646;8.906;2023-05-10T14:47:32;1.67;;;1.30;;
4597;SDS011;62772;48.646;8.906;2023-05-10T14:52:33;2.20;;;1.40;;
4597;SDS011;62772;48.646;8.906;2023-05-10T14:57:33;2.20;;;1.37;;
4597;SDS011;62772;48.646;8.906;2023-05-10T15:02:34;3.40;;;1.40;;
4597;SDS011;62772;48.646;8.906;2023-05-10T15:07:34;2.83;;;1.20;;
4597;SDS011;62772;48.646;8.906;2023-05-10T15:12:35;2.53;;;1.40;;
4597;SDS011;62772;48.646;8.906;2023-05-10T15:17:35;1.90;;;1.30;;
4597;SDS011;62772;48.646;8.906;2023-05-10T15:22:35;3.37;;;1.40;;
4597;SDS011;62772;48.646;8.906;2023-05-10T15:27:36;1.77;;;1.20;;
4597;SDS011;62772;48.646;8.906;2023-05-10T15:32:36;5.67;;;1.40;;
4597;SDS011;62772;48.646;8.906;2023-05-10T15:37:39;2.50;;;1.27;;
4597;SDS011;62772;48.646;8.906;2023-05-10T15:42:39;2.70;;;1.60;;
4597;SDS011;62772;48.646;8.906;2023-05-10T15:47:40;1.73;;;1.27;;
4597;SDS011;62772;48.646;8.906;2023-05-10T15:52:40;1.80;;;1.27;;
4597;SDS011;62772;48.646;8.906;2023-05-10T15:57:42;1.60;;;1.00;;
4597;SDS011;62772;48.646;8.906;2023-05-10T16:02:43;3.07;;;1.23;;
4597;SDS011;62772;48.646;8.906;2023-05-10T16:07:43;1.80;;;1.30;;
4597;SDS011;62772;48.646;8.906;2023-05-10T16:12:44;1.80;;;1.20;;
4597;SDS011;62772;48.646;8.906;2023-05-10T16:17:44;2.20;;;1.20;;
4597;SDS011;62772;48.646;8.906;2023-05-10T16:22:45;3.03;;;1.70;;
4597;SDS011;62772;48.646;8.906;2023-05-10T16:27:45;2.83;;;1.50;;
4597;SDS011;62772;48.646;8.906;2023-05-10T16:32:46;3.77;;;1.50;;
4597;SDS011;62772;48.646;8.906;2023-05-10T16:37:47;3.97;;;2.07;;
4597;SDS011;62772;48.646;8.906;2023-05-10T16:42:47;4.53;;;1.97;;
4597;SDS011;62772;48.646;8.906;2023-05-10T16:47:47;5.73;;;2.27;;
4597;SDS011;62772;48.646;8.906;2023-05-10T16:52:48;3.20;;;1.93;;
4597;SDS011;62772;48.646;8.906;2023-05-10T16:57:48;3.37;;;2.13;;
4597;SDS011;62772;48.646;8.906;2023-05-10T17:02:49;4.00;;;2.47;;
4597;SDS011;62772;48.646;8.906;2023-05-10T17:07:50;2.97;;;2.07;;
4597;SDS011;62772;48.646;8.906;2023-05-10T17:12:50;3.43;;;2.10;;
4597;SDS011;62772;48.646;8.906;2023-05-10T17:17:52;3.33;;;2.20;;
4597;SDS011;62772;48.646;8.906;2023-05-10T17:22:53;3.00;;;2.00;;
4597;SDS011;62772;48.646;8.906;2023-05-10T17:27:53;5.50;;;2.00;;
4597;SDS011;62772;48.646;8.906;2023-05-10T17:32:54;4.37;;;1.80;;
4597;SDS011;62772;48.646;8.906;2023-05-10T17:37:54;2.53;;;1.73;;
4597;SDS011;62772;48.646;8.906;2023-05-10T17:42:55;4.03;;;1.93;;
4597;SDS011;62772;48.646;8.906;2023-05-10T17:47:55;6.20;;;2.93;;
4597;SDS011;62772;48.646;8.906;2023-05-10T17:52:55;3.90;;;2.60;;
4597;SDS011;62772;48.646;8.906;2023-05-10T17:57:58;4.30;;;2.93;;
4597;SDS011;62772;48.646;8.906;2023-05-10T18:02:59;5.10;;;2.90;;
4597;SDS011;62772;48.646;8.906;2023-05-10T18:08:00;2.90;;;1.87;;
4597;SDS011;62772;48.646;8.906;2023-05-10T18:13:00;3.50;;;1.70;;
4597;SDS011;62772;48.646;8.906;2023-05-10T18:18:03;6.00;;;2.37;;
4597;SDS011;62772;48.646;8.906;2023-05-10T18:23:04;4.00;;;2.30;;
4597;SDS011;62772;48.646;8.906;2023-05-10T18:28:05;4.80;;;2.60;;
4597;SDS011;62772;48.646;8.906;2023-05-10T18:33:07;3.83;;;2.13;;
4597;SDS011;62772;48.646;8.906;2023-05-10T18:38:10;3.13;;;2.03;;
4597;SDS011;62772;48.646;8.906;2023-05-10T18:43:12;6.00;;;2.20;;
4597;SDS011;62772;48.646;8.906;2023-05-10T18:48:13;2.77;;;1.80;;
4597;SDS011;62772;48.646;8.906;2023-05-10T18:53:13;3.73;;;1.70;;
4597;SDS011;62772;48.646;8.906;2023-05-10T18:58:14;3.20;;;2.00;;
4597;SDS011;62772;48.646;8.906;2023-05-10T19:03:14;3.50;;;2.17;;
4597;SDS011;62772;48.646;8.906;2023-05-10T19:08:15;3.43;;;2.10;;
4597;SDS011;62772;48.646;8.906;2023-05-10T19:13:15;4.03;;;2.60;;
4597;SDS011;62772;48.646;8.906;2023-05-10T19:18:16;7.20;;;3.87;;
4597;SDS011;62772;48.646;8.906;2023-05-10T19:23:17;6.20;;;4.33;;
4597;SDS011;62772;48.646;8.906;2023-05-10T19:28:17;6.00;;;2.63;;
4597;SDS011;62772;48.646;8.906;2023-05-10T19:33:18;2.37;;;1.70;;
4597;SDS011;62772;48.646;8.906;2023-05-10T19:38:19;4.43;;;2.63;;
4597;SDS011;62772;48.646;8.906;2023-05-10T19:43:21;3.40;;;2.60;;
4597;SDS011;62772;48.646;8.906;2023-05-10T19:48:21;3.83;;;2.73;;
4597;SDS011;62772;48.646;8.906;2023-05-10T19:53:21;4.40;;;2.03;;
4597;SDS011;62772;48.646;8.906;2023-05-10T19:58:22;4.90;;;3.10;;
4597;SDS011;62772;48.646;8.906;2023-05-10T20:03:23;3.40;;;2.30;;
4597;SDS011;62772;48.646;8.906;2023-05-10T20:08:24;3.23;;;2.13;;
4597;SDS011;62772;48.646;8.906;2023-05-10T20:13:24;5.63;;;3.03;;
4597;SDS011;62772;48.646;8.906;2023-05-10T20:18:25;3.47;;;2.60;;
4597;SDS011;62772;48.646;8.906;2023-05-10T20:23:26;9.33;;;4.07;;
4597;SDS011;62772;48.646;8.906;2023-05-10T20:28:26;4.93;;;3.80;;
4597;SDS011;62772;48.646;8.906;2023-05-10T20:33:27;6.50;;;3.10;;
4597;SDS011;62772;48.646;8.906;2023-05-10T20:38:27;3.90;;;2.50;;
4597;SDS011;62772;48.646;8.906;2023-05-10T20:43:28;5.53;;;2.93;;
4597;SDS011;62772;48.646;8.906;2023-05-10T20:48:28;3.73;;;2.60;;
4597;SDS011;62772;48.646;8.906;2023-05-10T20:53:29;3.47;;;2.03;;
4597;SDS011;62772;48.646;8.906;2023-05-10T20:58:29;2.90;;;2.07;;
4597;SDS011;62772;48.646;8.906;2023-05-10T21:03:30;2.40;;;1.83;;
4597;SDS011;62772;48.646;8.906;2023-05-10T21:08:33;5.30;;;1.83;;
4597;SDS011;62772;48.646;8.906;2023-05-10T21:13:33;8.67;;;2.37;;
4597;SDS011;62772;48.646;8.906;2023-05-10T21:18:34;9.10;;;5.33;;
4597;SDS011;62772;48.646;8.906;2023-05-10T21:23:35;4.30;;;2.70;;
4597;SDS011;62772;48.646;8.906;2023-05-10T21:28:35;3.30;;;2.10;;
4597;SDS011;62772;48.646;8.906;2023-05-10T21:33:36;2.83;;;1.97;;
4597;SDS011;62772;48.646;8.906;2023-05-10T21:38:36;3.40;;;2.00;;
4597;SDS011;62772;48.646;8.906;2023-05-10T21:43:37;4.50;;;2.10;;
4597;SDS011;62772;48.646;8.906;2023-05-10T21:48:37;3.57;;;1.90;;
4597;SDS011;62772;48.646;8.906;2023-05-10T21:53:37;3.03;;;1.90;;
4597;SDS011;62772;48.646;8.906;2023-05-10T21:58:38;3.50;;;2.23;;
4597;SDS011;62772;48.646;8.906;2023-05-10T22:03:38;4.50;;;2.03;;
4597;SDS011;62772;48.646;8.906;2023-05-10T22:08:39;2.60;;;1.73;;
4597;SDS011;62772;48.646;8.906;2023-05-10T22:13:39;8.50;;;1.93;;
4597;SDS011;62772;48.646;8.906;2023-05-10T22:18:41;4.07;;;2.60;;
4597;SDS011;62772;48.646;8.906;2023-05-10T22:23:42;2.87;;;1.87;;
4597;SDS011;62772;48.646;8.906;2023-05-10T22:28:42;2.90;;;1.77;;
4597;SDS011;62772;48.646;8.906;2023-05-10T22:33:43;2.63;;;1.80;;
4597;SDS011;62772;48.646;8.906;2023-05-10T22:38:43;2.23;;;1.73;;
4597;SDS011;62772;48.646;8.906;2023-05-10T22:43:43;2.67;;;1.80;;
4597;SDS011;62772;48.646;8.906;2023-05-10T22:48:44;2.93;;;2.00;;
4597;SDS011;62772;48.646;8.906;2023-05-10T22:53:45;7.93;;;2.23;;
4597;SDS011;62772;48.646;8.906;2023-05-10T22:58:45;2.77;;;2.07;;
4597;SDS011;62772;48.646;8.906;2023-05-10T23:03:45;2.53;;;1.70;;
4597;SDS011;62772;48.646;8.906;2023-05-10T23:08:46;3.17;;;1.90;;
4597;SDS011;62772;48.646;8.906;2023-05-10T23:13:47;3.30;;;2.00;;
4597;SDS011;62772;48.646;8.906;2023-05-10T23:18:47;2.40;;;1.50;;
4597;SDS011;62772;48.646;8.906;2023-05-10T23:23:48;3.40;;;1.87;;
4597;SDS011;62772;48.646;8.906;2023-05-10T23:28:48;2.40;;;1.60;;
4597;SDS011;62772;48.646;8.906;2023-05-10T23:33:48;2.70;;;1.80;;
4597;SDS011;62772;48.646;8.906;2023-05-10T23:38:49;3.27;;;1.70;;
4597;SDS011;62772;48.646;8.906;2023-05-10T23:43:50;3.57;;;1.77;;
4597;SDS011;62772;48.646;8.906;2023-05-10T23:48:50;2.30;;;1.80;;
4597;SDS011;62772;48.646;8.906;2023-05-10T23:53:50;3.37;;;2.13;;
4597;SDS011;62772;48.646;8.906;2023-05-10T23:58:51;3.03;;;1.90;;
